sensor_id;sensor_type;location;lat;lon;timestamp;P1;durP1;ratioP1;P2;durP2;ratioP2
79047;SDS011;68680;50.764;6.120;2023-06-22T00:01:17;7.05;;;5.60;;
79047;SDS011;68680;50.764;6.120;2023-06-22T00:03:42;7.40;;;6.07;;
79047;SDS011;68680;50.764;6.120;2023-06-22T00:06:10;7.22;;;5.43;;
79047;SDS011;68680;50.764;6.120;2023-06-22T00:08:35;5.45;;;4.70;;
79047;SDS011;68680;50.764;6.120;2023-06-22T00:11:01;6.07;;;4.55;;
79047;SDS011;68680;50.764;6.120;2023-06-22T00:13:27;6.60;;;4.88;;
79047;SDS011;68680;50.764;6.120;2023-06-22T00:15:53;7.57;;;4.85;;
79047;SDS011;68680;50.764;6.120;2023-06-22T00:18:18;4.88;;;4.38;;
79047;SDS011;68680;50.764;6.120;2023-06-22T00:20:44;6.25;;;4.68;;
79047;SDS011;68680;50.764;6.120;2023-06-22T00:23:11;5.40;;;4.80;;
79047;SDS011;68680;50.764;6.120;2023-06-22T00:25:37;6.82;;;6.07;;
79047;SDS011;68680;50.764;6.120;2023-06-22T00:28:03;6.50;;;5.47;;
79047;SDS011;68680;50.764;6.120;2023-06-22T00:30:30;6.68;;;4.93;;
79047;SDS011;68680;50.764;6.120;2023-06-22T00:32:56;7.20;;;5.55;;
79047;SDS011;68680;50.764;6.120;2023-06-22T00:35:23;8.52;;;5.55;;
79047;SDS011;68680;50.764;6.120;2023-06-22T00:37:49;5.15;;;4.65;;
79047;SDS011;68680;50.764;6.120;2023-06-22T00:40:16;4.93;;;4.43;;
79047;SDS011;68680;50.764;6.120;2023-06-22T00:42:42;5.72;;;5.13;;
79047;SDS011;68680;50.764;6.120;2023-06-22T00:45:08;9.18;;;5.32;;
79047;SDS011;68680;50.764;6.120;2023-06-22T00:47:34;7.32;;;5.68;;
79047;SDS011;68680;50.764;6.120;2023-06-22T00:50:03;5.65;;;5.03;;
79047;SDS011;68680;50.764;6.120;2023-06-22T00:52:32;5.97;;;5.20;;
79047;SDS011;68680;50.764;6.120;2023-06-22T00:54:59;5.75;;;4.57;;
79047;SDS011;68680;50.764;6.120;2023-06-22T00:57:29;7.95;;;5.80;;
79047;SDS011;68680;50.764;6.120;2023-06-22T00:59:55;8.38;;;4.68;;
79047;SDS011;68680;50.764;6.120;2023-06-22T01:02:21;6.10;;;4.75;;
79047;SDS011;68680;50.764;6.120;2023-06-22T01:04:47;5.13;;;4.50;;
79047;SDS011;68680;50.764;6.120;2023-06-22T01:07:16;9.27;;;4.85;;
79047;SDS011;68680;50.764;6.120;2023-06-22T01:09:54;8.55;;;4.47;;
79047;SDS011;68680;50.764;6.120;2023-06-22T01:12:30;6.55;;;4.50;;
79047;SDS011;68680;50.764;6.120;2023-06-22T01:15:08;4.15;;;3.75;;
79047;SDS011;68680;50.764;6.120;2023-06-22T01:17:40;6.47;;;5.00;;
79047;SDS011;68680;50.764;6.120;2023-06-22T01:20:09;5.75;;;4.70;;
79047;SDS011;68680;50.764;6.120;2023-06-22T01:22:43;5.47;;;4.80;;
79047;SDS011;68680;50.764;6.120;2023-06-22T01:25:26;5.18;;;4.60;;
79047;SDS011;68680;50.764;6.120;2023-06-22T01:28:22;6.68;;;4.88;;
79047;SDS011;68680;50.764;6.120;2023-06-22T01:31:02;6.07;;;4.97;;
79047;SDS011;68680;50.764;6.120;2023-06-22T01:33:30;7.43;;;5.00;;
79047;SDS011;68680;50.764;6.120;2023-06-22T01:35:58;6.82;;;5.22;;
79047;SDS011;68680;50.764;6.120;2023-06-22T01:38:26;6.28;;;5.35;;
79047;SDS011;68680;50.764;6.120;2023-06-22T01:40:53;6.72;;;4.78;;
79047;SDS011;68680;50.764;6.120;2023-06-22T01:43:21;6.40;;;5.25;;
79047;SDS011;68680;50.764;6.120;2023-06-22T01:45:51;6.28;;;4.80;;
79047;SDS011;68680;50.764;6.120;2023-06-22T01:48:18;6.15;;;5.40;;
79047;SDS011;68680;50.764;6.120;2023-06-22T01:50:45;5.63;;;4.50;;
79047;SDS011;68680;50.764;6.120;2023-06-22T01:53:12;4.30;;;3.90;;
79047;SDS011;68680;50.764;6.120;2023-06-22T01:55:38;5.40;;;4.07;;
79047;SDS011;68680;50.764;6.120;2023-06-22T01:58:03;7.50;;;4.90;;
79047;SDS011;68680;50.764;6.120;2023-06-22T02:00:31;5.45;;;4.53;;
79047;SDS011;68680;50.764;6.120;2023-06-22T02:03:05;4.85;;;4.30;;
79047;SDS011;68680;50.764;6.120;2023-06-22T02:05:38;6.22;;;4.97;;
79047;SDS011;68680;50.764;6.120;2023-06-22T02:08:17;6.75;;;5.95;;
79047;SDS011;68680;50.764;6.120;2023-06-22T02:10:48;8.52;;;5.90;;
79047;SDS011;68680;50.764;6.120;2023-06-22T02:13:17;7.28;;;5.53;;
79047;SDS011;68680;50.764;6.120;2023-06-22T02:15:44;6.32;;;4.90;;
79047;SDS011;68680;50.764;6.120;2023-06-22T02:18:13;6.35;;;5.28;;
79047;SDS011;68680;50.764;6.120;2023-06-22T02:20:39;5.45;;;4.82;;
79047;SDS011;68680;50.764;6.120;2023-06-22T02:23:05;6.65;;;5.15;;
79047;SDS011;68680;50.764;6.120;2023-06-22T02:25:32;6.70;;;4.55;;
79047;SDS011;68680;50.764;6.120;2023-06-22T02:27:58;6.40;;;4.93;;
79047;SDS011;68680;50.764;6.120;2023-06-22T02:30:24;5.15;;;4.60;;
79047;SDS011;68680;50.764;6.120;2023-06-22T02:32:49;5.28;;;4.70;;
79047;SDS011;68680;50.764;6.120;2023-06-22T02:35:17;5.72;;;4.60;;
79047;SDS011;68680;50.764;6.120;2023-06-22T02:37:42;6.28;;;4.85;;
79047;SDS011;68680;50.764;6.120;2023-06-22T02:40:08;8.77;;;6.40;;
79047;SDS011;68680;50.764;6.120;2023-06-22T02:42:35;7.63;;;5.55;;
79047;SDS011;68680;50.764;6.120;2023-06-22T02:45:01;6.05;;;5.18;;
79047;SDS011;68680;50.764;6.120;2023-06-22T02:47:28;14.63;;;5.45;;
79047;SDS011;68680;50.764;6.120;2023-06-22T02:49:54;6.22;;;5.25;;
79047;SDS011;68680;50.764;6.120;2023-06-22T02:52:21;7.28;;;5.43;;
79047;SDS011;68680;50.764;6.120;2023-06-22T02:54:47;7.15;;;5.88;;
79047;SDS011;68680;50.764;6.120;2023-06-22T02:57:13;6.65;;;5.53;;
79047;SDS011;68680;50.764;6.120;2023-06-22T02:59:39;6.38;;;5.70;;
79047;SDS011;68680;50.764;6.120;2023-06-22T03:02:04;8.93;;;6.47;;
79047;SDS011;68680;50.764;6.120;2023-06-22T03:04:30;7.05;;;5.95;;
79047;SDS011;68680;50.764;6.120;2023-06-22T03:06:56;8.70;;;6.28;;
79047;SDS011;68680;50.764;6.120;2023-06-22T03:09:23;8.88;;;6.68;;
79047;SDS011;68680;50.764;6.120;2023-06-22T03:11:49;10.80;;;6.63;;
79047;SDS011;68680;50.764;6.120;2023-06-22T03:14:15;9.10;;;6.43;;
79047;SDS011;68680;50.764;6.120;2023-06-22T03:16:40;12.63;;;7.38;;
79047;SDS011;68680;50.764;6.120;2023-06-22T03:19:06;9.18;;;6.57;;
79047;SDS011;68680;50.764;6.120;2023-06-22T03:21:32;11.48;;;7.50;;
79047;SDS011;68680;50.764;6.120;2023-06-22T03:23:57;8.25;;;6.15;;
79047;SDS011;68680;50.764;6.120;2023-06-22T03:26:25;8.45;;;6.20;;
79047;SDS011;68680;50.764;6.120;2023-06-22T03:28:50;8.93;;;6.25;;
79047;SDS011;68680;50.764;6.120;2023-06-22T03:31:16;10.43;;;7.07;;
79047;SDS011;68680;50.764;6.120;2023-06-22T03:33:42;7.43;;;6.22;;
79047;SDS011;68680;50.764;6.120;2023-06-22T03:36:07;12.63;;;7.35;;
79047;SDS011;68680;50.764;6.120;2023-06-22T03:38:33;9.85;;;6.35;;
79047;SDS011;68680;50.764;6.120;2023-06-22T03:40:59;10.45;;;7.22;;
79047;SDS011;68680;50.764;6.120;2023-06-22T03:43:26;8.85;;;6.13;;
79047;SDS011;68680;50.764;6.120;2023-06-22T03:45:52;6.97;;;5.93;;
79047;SDS011;68680;50.764;6.120;2023-06-22T03:48:18;8.55;;;6.30;;
79047;SDS011;68680;50.764;6.120;2023-06-22T03:50:43;9.80;;;6.28;;
79047;SDS011;68680;50.764;6.120;2023-06-22T03:53:09;9.18;;;6.10;;
79047;SDS011;68680;50.764;6.120;2023-06-22T03:55:35;9.13;;;6.22;;
79047;SDS011;68680;50.764;6.120;2023-06-22T03:58:01;9.90;;;6.53;;
79047;SDS011;68680;50.764;6.120;2023-06-22T04:00:28;8.38;;;5.97;;
79047;SDS011;68680;50.764;6.120;2023-06-22T04:02:54;11.05;;;6.13;;
79047;SDS011;68680;50.764;6.120;2023-06-22T04:05:20;9.55;;;6.47;;
79047;SDS011;68680;50.764;6.120;2023-06-22T04:07:45;6.97;;;5.63;;
79047;SDS011;68680;50.764;6.120;2023-06-22T04:10:11;8.07;;;6.15;;
79047;SDS011;68680;50.764;6.120;2023-06-22T04:12:37;7.00;;;6.15;;
79047;SDS011;68680;50.764;6.120;2023-06-22T04:15:03;7.55;;;6.05;;
79047;SDS011;68680;50.764;6.120;2023-06-22T04:17:31;9.23;;;6.00;;
79047;SDS011;68680;50.764;6.120;2023-06-22T04:19:57;7.45;;;6.28;;
79047;SDS011;68680;50.764;6.120;2023-06-22T04:22:23;11.13;;;6.15;;
79047;SDS011;68680;50.764;6.120;2023-06-22T04:24:49;7.78;;;5.57;;
79047;SDS011;68680;50.764;6.120;2023-06-22T04:27:14;8.52;;;6.30;;
79047;SDS011;68680;50.764;6.120;2023-06-22T04:29:40;5.82;;;5.15;;
79047;SDS011;68680;50.764;6.120;2023-06-22T04:32:06;7.07;;;5.97;;
79047;SDS011;68680;50.764;6.120;2023-06-22T04:34:34;6.10;;;5.50;;
79047;SDS011;68680;50.764;6.120;2023-06-22T04:36:59;7.43;;;5.43;;
79047;SDS011;68680;50.764;6.120;2023-06-22T04:39:25;8.32;;;5.32;;
79047;SDS011;68680;50.764;6.120;2023-06-22T04:41:51;7.60;;;5.25;;
79047;SDS011;68680;50.764;6.120;2023-06-22T04:44:17;7.75;;;5.75;;
79047;SDS011;68680;50.764;6.120;2023-06-22T04:46:44;8.20;;;6.13;;
79047;SDS011;68680;50.764;6.120;2023-06-22T04:49:09;7.53;;;5.63;;
79047;SDS011;68680;50.764;6.120;2023-06-22T04:51:39;8.52;;;5.40;;
79047;SDS011;68680;50.764;6.120;2023-06-22T04:54:06;6.35;;;4.95;;
79047;SDS011;68680;50.764;6.120;2023-06-22T04:56:33;9.38;;;5.63;;
79047;SDS011;68680;50.764;6.120;2023-06-22T04:58:59;6.35;;;5.03;;
79047;SDS011;68680;50.764;6.120;2023-06-22T05:01:25;8.10;;;5.47;;
79047;SDS011;68680;50.764;6.120;2023-06-22T05:03:52;9.93;;;6.30;;
79047;SDS011;68680;50.764;6.120;2023-06-22T05:06:17;8.05;;;6.03;;
79047;SDS011;68680;50.764;6.120;2023-06-22T05:08:45;10.32;;;5.53;;
79047;SDS011;68680;50.764;6.120;2023-06-22T05:11:10;9.63;;;6.85;;
79047;SDS011;68680;50.764;6.120;2023-06-22T05:13:36;10.70;;;6.32;;
79047;SDS011;68680;50.764;6.120;2023-06-22T05:16:02;11.70;;;6.18;;
79047;SDS011;68680;50.764;6.120;2023-06-22T05:18:28;13.90;;;7.22;;
79047;SDS011;68680;50.764;6.120;2023-06-22T05:20:54;12.02;;;6.55;;
79047;SDS011;68680;50.764;6.120;2023-06-22T05:23:20;8.07;;;6.28;;
79047;SDS011;68680;50.764;6.120;2023-06-22T05:25:47;8.55;;;6.30;;
79047;SDS011;68680;50.764;6.120;2023-06-22T05:28:13;9.82;;;5.65;;
79047;SDS011;68680;50.764;6.120;2023-06-22T05:30:39;9.25;;;6.40;;
79047;SDS011;68680;50.764;6.120;2023-06-22T05:33:05;12.55;;;6.53;;
79047;SDS011;68680;50.764;6.120;2023-06-22T05:35:30;8.13;;;6.13;;
79047;SDS011;68680;50.764;6.120;2023-06-22T05:37:56;11.45;;;5.80;;
79047;SDS011;68680;50.764;6.120;2023-06-22T05:40:22;10.55;;;6.35;;
79047;SDS011;68680;50.764;6.120;2023-06-22T05:42:49;10.45;;;6.25;;
79047;SDS011;68680;50.764;6.120;2023-06-22T05:45:15;12.20;;;6.20;;
79047;SDS011;68680;50.764;6.120;2023-06-22T05:47:40;12.77;;;7.30;;
79047;SDS011;68680;50.764;6.120;2023-06-22T05:50:06;9.23;;;6.80;;
79047;SDS011;68680;50.764;6.120;2023-06-22T05:52:33;10.35;;;6.60;;
79047;SDS011;68680;50.764;6.120;2023-06-22T05:54:58;10.60;;;6.57;;
79047;SDS011;68680;50.764;6.120;2023-06-22T05:57:24;7.43;;;6.30;;
79047;SDS011;68680;50.764;6.120;2023-06-22T05:59:51;7.57;;;6.35;;
79047;SDS011;68680;50.764;6.120;2023-06-22T06:02:17;12.18;;;6.03;;
79047;SDS011;68680;50.764;6.120;2023-06-22T06:04:43;12.05;;;6.93;;
79047;SDS011;68680;50.764;6.120;2023-06-22T06:07:08;12.57;;;6.90;;
79047;SDS011;68680;50.764;6.120;2023-06-22T06:09:34;10.82;;;6.80;;
79047;SDS011;68680;50.764;6.120;2023-06-22T06:12:00;12.60;;;7.32;;
79047;SDS011;68680;50.764;6.120;2023-06-22T06:14:26;8.65;;;6.85;;
79047;SDS011;68680;50.764;6.120;2023-06-22T06:16:53;10.75;;;6.88;;
79047;SDS011;68680;50.764;6.120;2023-06-22T06:19:19;8.52;;;6.20;;
79047;SDS011;68680;50.764;6.120;2023-06-22T06:21:44;9.93;;;6.88;;
79047;SDS011;68680;50.764;6.120;2023-06-22T06:24:10;10.25;;;6.40;;
79047;SDS011;68680;50.764;6.120;2023-06-22T06:26:36;9.07;;;6.88;;
79047;SDS011;68680;50.764;6.120;2023-06-22T06:29:02;9.45;;;6.45;;
79047;SDS011;68680;50.764;6.120;2023-06-22T06:31:28;7.80;;;6.47;;
79047;SDS011;68680;50.764;6.120;2023-06-22T06:33:55;13.43;;;6.63;;
79047;SDS011;68680;50.764;6.120;2023-06-22T06:36:21;9.50;;;6.05;;
79047;SDS011;68680;50.764;6.120;2023-06-22T06:38:47;9.10;;;6.05;;
79047;SDS011;68680;50.764;6.120;2023-06-22T06:41:13;7.70;;;6.22;;
79047;SDS011;68680;50.764;6.120;2023-06-22T06:43:38;8.60;;;6.10;;
79047;SDS011;68680;50.764;6.120;2023-06-22T06:46:04;9.18;;;6.57;;
79047;SDS011;68680;50.764;6.120;2023-06-22T06:48:30;9.82;;;6.63;;
79047;SDS011;68680;50.764;6.120;2023-06-22T06:50:57;10.15;;;6.85;;
79047;SDS011;68680;50.764;6.120;2023-06-22T06:53:23;10.07;;;6.75;;
79047;SDS011;68680;50.764;6.120;2023-06-22T06:55:49;10.13;;;6.90;;
79047;SDS011;68680;50.764;6.120;2023-06-22T06:58:15;10.93;;;6.72;;
79047;SDS011;68680;50.764;6.120;2023-06-22T07:00:40;13.30;;;6.90;;
79047;SDS011;68680;50.764;6.120;2023-06-22T07:03:06;8.70;;;6.97;;
79047;SDS011;68680;50.764;6.120;2023-06-22T07:05:32;9.02;;;7.18;;
79047;SDS011;68680;50.764;6.120;2023-06-22T07:07:59;15.98;;;8.52;;
79047;SDS011;68680;50.764;6.120;2023-06-22T07:10:25;11.40;;;8.43;;
79047;SDS011;68680;50.764;6.120;2023-06-22T07:12:51;11.75;;;7.68;;
79047;SDS011;68680;50.764;6.120;2023-06-22T07:15:17;13.52;;;6.97;;
79047;SDS011;68680;50.764;6.120;2023-06-22T07:17:42;12.70;;;7.18;;
79047;SDS011;68680;50.764;6.120;2023-06-22T07:20:09;11.43;;;6.53;;
79047;SDS011;68680;50.764;6.120;2023-06-22T07:22:36;10.65;;;7.32;;
79047;SDS011;68680;50.764;6.120;2023-06-22T07:25:03;11.98;;;7.22;;
79047;SDS011;68680;50.764;6.120;2023-06-22T07:27:30;13.15;;;7.55;;
79047;SDS011;68680;50.764;6.120;2023-06-22T07:29:56;14.95;;;8.25;;
79047;SDS011;68680;50.764;6.120;2023-06-22T07:32:22;11.02;;;6.93;;
79047;SDS011;68680;50.764;6.120;2023-06-22T07:34:48;11.73;;;8.00;;
79047;SDS011;68680;50.764;6.120;2023-06-22T07:37:13;11.15;;;7.85;;
79047;SDS011;68680;50.764;6.120;2023-06-22T07:39:39;12.15;;;7.60;;
79047;SDS011;68680;50.764;6.120;2023-06-22T07:42:06;12.23;;;8.02;;
79047;SDS011;68680;50.764;6.120;2023-06-22T07:44:32;9.07;;;7.40;;
79047;SDS011;68680;50.764;6.120;2023-06-22T07:46:58;9.88;;;7.25;;
79047;SDS011;68680;50.764;6.120;2023-06-22T07:49:24;12.38;;;7.85;;
79047;SDS011;68680;50.764;6.120;2023-06-22T07:51:50;9.50;;;7.70;;
79047;SDS011;68680;50.764;6.120;2023-06-22T07:54:15;10.75;;;8.10;;
79047;SDS011;68680;50.764;6.120;2023-06-22T07:56:41;11.05;;;8.88;;
79047;SDS011;68680;50.764;6.120;2023-06-22T07:59:08;9.50;;;7.13;;
79047;SDS011;68680;50.764;6.120;2023-06-22T08:01:34;12.25;;;7.88;;
79047;SDS011;68680;50.764;6.120;2023-06-22T08:04:00;9.43;;;7.60;;
79047;SDS011;68680;50.764;6.120;2023-06-22T08:06:26;12.90;;;7.72;;
79047;SDS011;68680;50.764;6.120;2023-06-22T08:08:51;11.10;;;7.53;;
79047;SDS011;68680;50.764;6.120;2023-06-22T08:11:17;10.68;;;7.80;;
79047;SDS011;68680;50.764;6.120;2023-06-22T08:13:43;9.75;;;7.38;;
79047;SDS011;68680;50.764;6.120;2023-06-22T08:16:10;9.65;;;8.07;;
79047;SDS011;68680;50.764;6.120;2023-06-22T08:18:36;10.18;;;8.10;;
79047;SDS011;68680;50.764;6.120;2023-06-22T08:21:02;18.63;;;9.00;;
79047;SDS011;68680;50.764;6.120;2023-06-22T08:23:27;11.30;;;8.48;;
79047;SDS011;68680;50.764;6.120;2023-06-22T08:25:53;14.10;;;8.43;;
79047;SDS011;68680;50.764;6.120;2023-06-22T08:28:19;16.17;;;9.07;;
79047;SDS011;68680;50.764;6.120;2023-06-22T08:30:45;13.52;;;8.18;;
79047;SDS011;68680;50.764;6.120;2023-06-22T08:33:12;11.18;;;8.32;;
79047;SDS011;68680;50.764;6.120;2023-06-22T08:35:38;21.27;;;9.85;;
79047;SDS011;68680;50.764;6.120;2023-06-22T08:38:03;12.02;;;8.68;;
79047;SDS011;68680;50.764;6.120;2023-06-22T08:40:29;14.25;;;7.93;;
79047;SDS011;68680;50.764;6.120;2023-06-22T08:42:55;11.02;;;9.10;;
79047;SDS011;68680;50.764;6.120;2023-06-22T08:45:21;14.80;;;8.48;;
79047;SDS011;68680;50.764;6.120;2023-06-22T08:47:46;20.83;;;8.52;;
79047;SDS011;68680;50.764;6.120;2023-06-22T08:50:14;12.55;;;7.32;;
79047;SDS011;68680;50.764;6.120;2023-06-22T08:52:40;15.70;;;7.18;;
79047;SDS011;68680;50.764;6.120;2023-06-22T08:55:06;10.02;;;6.88;;
79047;SDS011;68680;50.764;6.120;2023-06-22T08:57:32;15.95;;;9.23;;
79047;SDS011;68680;50.764;6.120;2023-06-22T08:59:58;24.88;;;9.43;;
79047;SDS011;68680;50.764;6.120;2023-06-22T09:02:24;12.82;;;7.70;;
79047;SDS011;68680;50.764;6.120;2023-06-22T09:04:50;13.82;;;8.32;;
79047;SDS011;68680;50.764;6.120;2023-06-22T09:07:18;14.05;;;8.82;;
79047;SDS011;68680;50.764;6.120;2023-06-22T09:09:43;10.88;;;8.30;;
79047;SDS011;68680;50.764;6.120;2023-06-22T09:12:09;12.85;;;8.48;;
79047;SDS011;68680;50.764;6.120;2023-06-22T09:14:35;15.63;;;7.70;;
79047;SDS011;68680;50.764;6.120;2023-06-22T09:17:01;18.25;;;8.45;;
79047;SDS011;68680;50.764;6.120;2023-06-22T09:19:27;22.33;;;9.40;;
79047;SDS011;68680;50.764;6.120;2023-06-22T09:21:53;21.70;;;8.57;;
79047;SDS011;68680;50.764;6.120;2023-06-22T09:24:20;13.57;;;7.78;;
79047;SDS011;68680;50.764;6.120;2023-06-22T09:26:45;10.45;;;7.40;;
79047;SDS011;68680;50.764;6.120;2023-06-22T09:29:11;49.55;;;10.45;;
79047;SDS011;68680;50.764;6.120;2023-06-22T09:31:37;16.00;;;7.90;;
79047;SDS011;68680;50.764;6.120;2023-06-22T09:34:03;10.68;;;8.00;;
79047;SDS011;68680;50.764;6.120;2023-06-22T09:36:28;11.38;;;7.38;;
79047;SDS011;68680;50.764;6.120;2023-06-22T09:38:54;12.48;;;7.63;;
79047;SDS011;68680;50.764;6.120;2023-06-22T09:41:21;10.15;;;8.23;;
79047;SDS011;68680;50.764;6.120;2023-06-22T09:43:47;15.70;;;9.05;;
79047;SDS011;68680;50.764;6.120;2023-06-22T09:46:14;11.57;;;7.65;;
79047;SDS011;68680;50.764;6.120;2023-06-22T09:48:40;10.80;;;8.23;;
79047;SDS011;68680;50.764;6.120;2023-06-22T09:51:06;11.23;;;7.35;;
79047;SDS011;68680;50.764;6.120;2023-06-22T09:53:31;9.98;;;7.20;;
79047;SDS011;68680;50.764;6.120;2023-06-22T09:55:57;10.43;;;8.60;;
79047;SDS011;68680;50.764;6.120;2023-06-22T09:58:24;15.73;;;10.00;;
79047;SDS011;68680;50.764;6.120;2023-06-22T10:00:50;18.05;;;11.35;;
79047;SDS011;68680;50.764;6.120;2023-06-22T10:03:16;23.63;;;13.55;;
79047;SDS011;68680;50.764;6.120;2023-06-22T10:05:42;17.67;;;12.68;;
79047;SDS011;68680;50.764;6.120;2023-06-22T10:08:08;21.60;;;13.15;;
79047;SDS011;68680;50.764;6.120;2023-06-22T10:10:34;24.42;;;15.65;;
79047;SDS011;68680;50.764;6.120;2023-06-22T10:13:03;21.70;;;14.40;;
79047;SDS011;68680;50.764;6.120;2023-06-22T10:15:35;29.10;;;16.98;;
79047;SDS011;68680;50.764;6.120;2023-06-22T10:18:01;34.22;;;17.35;;
79047;SDS011;68680;50.764;6.120;2023-06-22T10:20:27;29.52;;;17.52;;
79047;SDS011;68680;50.764;6.120;2023-06-22T10:22:53;24.40;;;17.20;;
79047;SDS011;68680;50.764;6.120;2023-06-22T10:25:19;27.80;;;17.92;;
79047;SDS011;68680;50.764;6.120;2023-06-22T10:27:46;31.45;;;18.77;;
79047;SDS011;68680;50.764;6.120;2023-06-22T10:30:12;30.77;;;19.52;;
79047;SDS011;68680;50.764;6.120;2023-06-22T10:32:40;38.38;;;21.52;;
79047;SDS011;68680;50.764;6.120;2023-06-22T10:35:07;44.45;;;25.00;;
79047;SDS011;68680;50.764;6.120;2023-06-22T10:37:35;33.90;;;22.00;;
79047;SDS011;68680;50.764;6.120;2023-06-22T10:40:01;37.40;;;23.48;;
79047;SDS011;68680;50.764;6.120;2023-06-22T10:42:27;36.10;;;22.85;;
79047;SDS011;68680;50.764;6.120;2023-06-22T10:44:52;40.17;;;24.35;;
79047;SDS011;68680;50.764;6.120;2023-06-22T10:47:18;47.40;;;26.65;;
79047;SDS011;68680;50.764;6.120;2023-06-22T10:49:45;45.33;;;27.40;;
79047;SDS011;68680;50.764;6.120;2023-06-22T10:52:11;44.38;;;27.10;;
79047;SDS011;68680;50.764;6.120;2023-06-22T10:54:37;47.20;;;28.42;;
79047;SDS011;68680;50.764;6.120;2023-06-22T10:57:03;42.05;;;26.73;;
79047;SDS011;68680;50.764;6.120;2023-06-22T10:59:30;53.67;;;26.65;;
79047;SDS011;68680;50.764;6.120;2023-06-22T11:01:55;41.10;;;25.90;;
79047;SDS011;68680;50.764;6.120;2023-06-22T11:04:21;43.28;;;27.13;;
79047;SDS011;68680;50.764;6.120;2023-06-22T11:06:49;38.75;;;26.02;;
79047;SDS011;68680;50.764;6.120;2023-06-22T11:09:15;45.22;;;26.58;;
79047;SDS011;68680;50.764;6.120;2023-06-22T11:11:41;46.83;;;29.00;;
79047;SDS011;68680;50.764;6.120;2023-06-22T11:14:07;43.90;;;29.08;;
79047;SDS011;68680;50.764;6.120;2023-06-22T11:16:32;44.72;;;28.23;;
79047;SDS011;68680;50.764;6.120;2023-06-22T11:18:58;46.25;;;28.67;;
79047;SDS011;68680;50.764;6.120;2023-06-22T11:21:24;46.25;;;26.70;;
79047;SDS011;68680;50.764;6.120;2023-06-22T11:23:51;39.58;;;25.70;;
79047;SDS011;68680;50.764;6.120;2023-06-22T11:26:17;40.67;;;24.90;;
79047;SDS011;68680;50.764;6.120;2023-06-22T11:28:42;32.63;;;20.85;;
79047;SDS011;68680;50.764;6.120;2023-06-22T11:31:08;31.15;;;20.13;;
79047;SDS011;68680;50.764;6.120;2023-06-22T11:33:34;27.52;;;18.83;;
79047;SDS011;68680;50.764;6.120;2023-06-22T11:36:00;27.33;;;17.90;;
79047;SDS011;68680;50.764;6.120;2023-06-22T11:38:25;27.83;;;19.35;;
79047;SDS011;68680;50.764;6.120;2023-06-22T11:40:53;25.90;;;17.45;;
79047;SDS011;68680;50.764;6.120;2023-06-22T11:43:18;24.73;;;17.75;;
79047;SDS011;68680;50.764;6.120;2023-06-22T11:45:44;31.27;;;17.95;;
79047;SDS011;68680;50.764;6.120;2023-06-22T11:48:10;22.27;;;16.38;;
79047;SDS011;68680;50.764;6.120;2023-06-22T11:50:36;22.10;;;16.58;;
79047;SDS011;68680;50.764;6.120;2023-06-22T11:53:01;23.65;;;16.55;;
79047;SDS011;68680;50.764;6.120;2023-06-22T11:55:27;23.27;;;16.45;;
79047;SDS011;68680;50.764;6.120;2023-06-22T11:57:55;23.95;;;16.50;;
79047;SDS011;68680;50.764;6.120;2023-06-22T12:00:22;26.48;;;17.25;;
79047;SDS011;68680;50.764;6.120;2023-06-22T12:02:48;24.52;;;18.27;;
79047;SDS011;68680;50.764;6.120;2023-06-22T12:05:14;27.00;;;17.55;;
79047;SDS011;68680;50.764;6.120;2023-06-22T12:07:40;26.88;;;17.90;;
79047;SDS011;68680;50.764;6.120;2023-06-22T12:10:06;30.60;;;18.50;;
79047;SDS011;68680;50.764;6.120;2023-06-22T12:12:32;24.80;;;16.45;;
79047;SDS011;68680;50.764;6.120;2023-06-22T12:15:00;24.20;;;16.25;;
79047;SDS011;68680;50.764;6.120;2023-06-22T12:17:26;26.63;;;16.65;;
79047;SDS011;68680;50.764;6.120;2023-06-22T12:19:51;28.38;;;18.23;;
79047;SDS011;68680;50.764;6.120;2023-06-22T12:22:17;24.50;;;18.05;;
79047;SDS011;68680;50.764;6.120;2023-06-22T12:24:43;28.88;;;18.58;;
79047;SDS011;68680;50.764;6.120;2023-06-22T12:27:09;26.45;;;17.30;;
79047;SDS011;68680;50.764;6.120;2023-06-22T12:29:34;24.00;;;17.10;;
79047;SDS011;68680;50.764;6.120;2023-06-22T12:32:02;22.67;;;15.93;;
79047;SDS011;68680;50.764;6.120;2023-06-22T12:34:29;21.50;;;15.55;;
79047;SDS011;68680;50.764;6.120;2023-06-22T12:36:54;25.15;;;16.98;;
79047;SDS011;68680;50.764;6.120;2023-06-22T12:39:20;22.23;;;15.02;;
79047;SDS011;68680;50.764;6.120;2023-06-22T12:41:46;20.08;;;13.82;;
79047;SDS011;68680;50.764;6.120;2023-06-22T12:44:12;18.83;;;13.48;;
79047;SDS011;68680;50.764;6.120;2023-06-22T12:46:37;23.42;;;15.90;;
79047;SDS011;68680;50.764;6.120;2023-06-22T12:49:05;24.92;;;16.33;;
79047;SDS011;68680;50.764;6.120;2023-06-22T12:51:30;23.45;;;16.17;;
79047;SDS011;68680;50.764;6.120;2023-06-22T12:53:56;24.98;;;15.70;;
79047;SDS011;68680;50.764;6.120;2023-06-22T12:56:22;21.30;;;15.65;;
79047;SDS011;68680;50.764;6.120;2023-06-22T12:58:48;23.88;;;16.77;;
79047;SDS011;68680;50.764;6.120;2023-06-22T13:01:14;25.90;;;16.85;;
79047;SDS011;68680;50.764;6.120;2023-06-22T13:03:41;22.08;;;14.65;;
79047;SDS011;68680;50.764;6.120;2023-06-22T13:06:08;23.63;;;14.77;;
79047;SDS011;68680;50.764;6.120;2023-06-22T13:08:34;22.83;;;14.85;;
79047;SDS011;68680;50.764;6.120;2023-06-22T13:11:00;21.40;;;15.52;;
79047;SDS011;68680;50.764;6.120;2023-06-22T13:13:25;22.67;;;15.18;;
79047;SDS011;68680;50.764;6.120;2023-06-22T13:15:51;22.02;;;14.98;;
79047;SDS011;68680;50.764;6.120;2023-06-22T13:18:20;23.10;;;13.63;;
79047;SDS011;68680;50.764;6.120;2023-06-22T13:20:46;22.25;;;14.23;;
79047;SDS011;68680;50.764;6.120;2023-06-22T13:23:13;22.67;;;14.18;;
79047;SDS011;68680;50.764;6.120;2023-06-22T13:25:38;19.90;;;13.80;;
79047;SDS011;68680;50.764;6.120;2023-06-22T13:28:04;19.35;;;13.63;;
79047;SDS011;68680;50.764;6.120;2023-06-22T13:30:30;23.73;;;15.70;;
79047;SDS011;68680;50.764;6.120;2023-06-22T13:32:56;23.40;;;15.85;;
79047;SDS011;68680;50.764;6.120;2023-06-22T13:35:21;28.13;;;16.17;;
79047;SDS011;68680;50.764;6.120;2023-06-22T13:37:47;26.08;;;16.45;;
79047;SDS011;68680;50.764;6.120;2023-06-22T13:40:14;23.33;;;15.93;;
79047;SDS011;68680;50.764;6.120;2023-06-22T13:42:40;26.10;;;16.40;;
79047;SDS011;68680;50.764;6.120;2023-06-22T13:45:07;26.35;;;17.83;;
79047;SDS011;68680;50.764;6.120;2023-06-22T13:47:34;26.30;;;18.08;;
79047;SDS011;68680;50.764;6.120;2023-06-22T13:50:00;25.95;;;17.50;;
79047;SDS011;68680;50.764;6.120;2023-06-22T13:52:26;26.90;;;17.95;;
79047;SDS011;68680;50.764;6.120;2023-06-22T13:54:52;30.58;;;19.67;;
79047;SDS011;68680;50.764;6.120;2023-06-22T13:57:19;28.70;;;19.35;;
79047;SDS011;68680;50.764;6.120;2023-06-22T13:59:45;31.08;;;19.50;;
79047;SDS011;68680;50.764;6.120;2023-06-22T14:02:10;30.63;;;19.77;;
79047;SDS011;68680;50.764;6.120;2023-06-22T14:04:36;33.10;;;20.35;;
79047;SDS011;68680;50.764;6.120;2023-06-22T14:07:03;32.53;;;20.77;;
79047;SDS011;68680;50.764;6.120;2023-06-22T14:09:29;33.90;;;20.77;;
79047;SDS011;68680;50.764;6.120;2023-06-22T14:11:55;32.22;;;21.10;;
79047;SDS011;68680;50.764;6.120;2023-06-22T14:14:22;35.50;;;23.05;;
79047;SDS011;68680;50.764;6.120;2023-06-22T14:16:48;35.03;;;22.27;;
79047;SDS011;68680;50.764;6.120;2023-06-22T14:19:13;35.70;;;22.90;;
79047;SDS011;68680;50.764;6.120;2023-06-22T14:21:39;37.33;;;22.17;;
79047;SDS011;68680;50.764;6.120;2023-06-22T14:24:05;35.53;;;22.63;;
79047;SDS011;68680;50.764;6.120;2023-06-22T14:26:31;42.28;;;23.92;;
79047;SDS011;68680;50.764;6.120;2023-06-22T14:28:56;34.78;;;22.27;;
79047;SDS011;68680;50.764;6.120;2023-06-22T14:31:24;40.05;;;23.92;;